Bridgewater, Massachusetts
Current Conditions -  °F | °C
As of 11:52 AM on Sunday 23 Nov 2014 (Local Time) from KTAN Reporting Station
Clear Clear  
Wind Chill: 55°   Ceiling: Unl
Heat Index: 55°   Visibility: 10mi
Dew Point: 33°   Wind: 6mph
Humidity: 43%   Direction: NA
Pressure: 30.14"   Gusts: NA
Location:  41.99°N, 70.98°W
Report Text: KTAN 231652Z AUTO VRB05KT 10SM CLR 13/01 A3014 RMK AO2 SLP205 T01280006
Loading
Personal Weather Stations






























Interactive Weather Map New forecast layout! Learn more

10-Day Weather Forecast

Advertisements
Track Severe Weather on mobile